Elko Regional Airport
KEKO : now visible

Airfield :











YOU CAN JOIN US ON...

 
LOGIN :

Register | Disclaimer

   EN    FR    IT 

 









Legend :    VFR   Marginal VFR   IFR   Intensive IFR   Very Intensive IFR
Visi :
Ceiling :
>= 8 km
>= 3000ft
5 to 8 km
1000 to 3000 ft
1500m to 5 km
500 to 1000 ft
800 to 1500m
200 to 500 ft
< 800m
< 200 ft
Symbols :   Thunderstorms  Fog  Heavy snow  Heavy precipitations  Wind > 20 kt






- Airport Elevation : 5140 ft
- IATA code : EKO


KEKO - Elko Regional

CURRENT METAR :
  • 020334Z AUTO 22010KT 1 3/4SM -SN BR FEW004 OVC011 01/M01 A2961 RMK AO2 P0005 T00061006

EXPIRED METARs :
  • 020309Z AUTO 22012KT 3SM -SN BR OVC014 01/M01 A2961 RMK AO2 P0002 T00061006
  • 020256Z AUTO 22012KT 4SM -SN BR FEW007 OVC016 01/00 A2961 RMK AO2 RAE0158SNB0158 SLP031 P0004 60005 T00110000 50009
  • 020203Z AUTO 22010KT 7SM -SN FEW009 OVC017 01/00 A2962 RMK AO2 RAE0158SNB0158 P0000 T00110000
  • 020156Z AUTO 23010KT 10SM -RA FEW013 OVC017 02/00 A2962 RMK AO2 UPB24E29RAB29 SLP035 P0001 T00170000
  • 020132Z AUTO 24013KT 10SM -RA FEW015 SCT020 OVC028 02/00 A2962 RMK AO2 UPB24E29RAB29 P0000 T00220000
  • 020056Z AUTO 27016G23KT 10SM SCT047 OVC060 03/M01 A2961 RMK AO2 SLP026 T00331011

TAF KEKO
Valid from the 02 at 03:00 until the 03 at 00:00 UTC


020234Z 0203/0224 22014G24KT 4SM -SHSN SCT017 OVC035
TEMPO 0203/0205 1 1/2SM -SN OVC008
FM020700 24012G20KT P6SM VCSH BKN015 OVC050
FM021000 23009KT P6SM FEW050 BKN250
KZLC FIR / North America



MET'MAP, your aeronautical weather chart ! - Copyright ORBIFLY December 2007 - Disclaimer

ORBIFLY MET'MAP TEAM :

Programming & Development : Alexandra Zaïnal
Original concept : Baudouin d'Aumeries
Technical & hardware support : Manuel Goepfert
Assistance : Marc-Olivier Méhu




SOURCES & CREDITS :

   NOAA       Earth
Advisory